Historyczne dane pomiarowe

Dodano dane terminowe – wersja testowa.

Dane z okresu 1951-2019

Wersja bazy: 1.34 [2019-03-16, lista zmian], aktualizacja planowana na 2019-04-15

Dane meteo z obszaru Polski uzyskane na podstawie danych udostępnionych przez Instytut Meteorologii i Gospodarki Wodnej – Państwowy Instytut Badawczy.

 

Wybierz Datę:    

       

TemperaturaWilgotnośćWiatrCiśnienieOpadyŚniegCzas trwania zjawisk
 Stacja t tx tn tng RH VA  wxwx mslp ppp RRR   cm mm wxwxwxwxwxwxwx
2019-06-19 20.2 26.3 14.3--- 5.7 1.7---- 0.8------------
2019-06-18 17.2 21.3 10.9--- 7.3 1.0---- 0.1------------
2019-06-17 16.8 19.0 15.8--- 5.7 1.3---- 0.2------------
2019-06-16 22.1 27.5 18.7--- 3.3 2.3---- 3.1------------
2019-06-15 24.8 31.3 16.6--- 1.7 2.3---- 0.0------------
2019-06-14 24.3 28.0 19.5--- 5.7 1.7---- 7.3------------
2019-06-13 25.3 30.5 19.2--- 0.3 2.0---- 0.0------------
2019-06-12 24.9 29.4 19.5--- 3.7 2.0---- 0.0------------
2019-06-11 25.1 28.8 21.1--- 1.3 2.3---- 0.0------------
2019-06-10 22.1 27.9 14.4--- 3.3 3.3---- 0.0------------
2019-06-09 19.1 22.8 15.4--- 4.0 2.0---- 0.0------------
2019-06-08 20.9 26.7 14.6--- 2.3 2.0---- 0.0------------
2019-06-07 18.6 22.5 13.7--- 5.7 2.3---- 3.0------------
2019-06-06 19.0 23.3 13.7--- 1.7 3.0---- 9.2------------
2019-06-05 19.1 24.1 13.4--- 2.7 3.3---- 0.0------------
2019-06-04 19.0 24.2 14.4--- 5.7 2.7---- 2.4------------
2019-06-03 19.0 23.9 11.8--- 4.0 1.3---- 0.0------------
2019-06-02 18.3 22.7 12.1--- 4.0 1.0---- 0.0------------
2019-06-01 15.5 21.1 8.2--- 4.7 1.3---- 0.0------------
2019-05-31 12.6 18.1 7.3--- 5.7 1.0---- 2.2------------
2019-05-30 8.5 9.8 7.0--- 8.0 2.0---- 13.0------------
2019-05-29 12.6 17.2 9.1--- 8.0 2.3---- 4.4------------
2019-05-28 17.8 21.2 14.4--- 7.0 3.7---- 0.0------------
2019-05-27 17.8 22.8 11.8--- 7.3 2.3---- 0.9------------
2019-05-26 16.1 20.7 10.2--- 6.3 1.7---- 0.0------------
2019-05-25 15.0 20.0 10.5--- 6.0 1.7---- 0.0------------
2019-05-24 11.0 13.3 9.1--- 8.0 3.0---- 0.2------------
2019-05-23 11.2 12.8 9.7--- 8.0 4.7---- 52.4------------
2019-05-22 13.1 15.5 11.2--- 8.0 2.7---- 59.4------------
2019-05-21 13.0 16.7 9.9--- 8.0 2.7---- 36.8------------
2019-05-20 16.5 19.7 13.0--- 6.3 2.7---- 0.0------------
2019-05-19 16.9 22.4 9.0--- 2.7 3.7---- 0.0------------
2019-05-18 17.3 21.9 12.0--- 6.0 3.0---- 0.0------------
2019-05-17 14.1 18.9 9.6--- 7.0 3.3---- 0.0------------
2019-05-16 11.3 15.6 7.7--- 7.3 2.3---- 2.1------------
2019-05-15 7.0 8.9 4.8--- 8.0 2.7---- 7.3------------
2019-05-14 3.5 6.6 0.7--- 8.0 1.3---- 32.0------------
2019-05-13 6.5 8.8 5.0--- 8.0 3.0---- 9.9------------
2019-05-12 12.4 19.5 8.5--- 8.0 2.3---- 5.9------------
2019-05-11 13.1 18.2 8.7--- 5.7 2.7---- 0.0------------
2019-05-10 10.3 15.0 5.7--- 6.0 3.0---- 3.9------------
2019-05-09 8.5 10.1 7.1--- 8.0 3.3---- 5.1------------
2019-05-08 8.2 12.5 1.9--- 2.7 2.0---- 0.0------------
2019-05-07 6.8 9.5 2.8--- 6.0 3.0---- 0.0------------
2019-05-06 4.0 5.9 2.4--- 7.3 3.0---- 2.1------------
2019-05-05 4.9 9.1 2.1--- 8.0 2.3---- 20.3------------
2019-05-04 7.7 12.9 2.2--- 5.3 1.3---- 1.7------------
2019-05-03 9.9 15.2 6.4--- 8.0 2.3---- 8.1------------
2019-05-02 12.9 18.2 7.2--- 5.7 5.0---- 0.0------------
2019-05-01 10.9 15.0 7.2--- 6.7 3.7---- 2.1------------
2019-04-30 9.3 10.2 8.3--- 8.0 2.3---- 22.4------------
2019-04-29 8.5 10.5 6.3--- 8.0 2.3---- 1.3------------
2019-04-28 8.6 10.3 7.7--- 8.0 3.3---- 34.5------------
2019-04-27 13.8 21.3 9.9--- 8.0 1.3---- 24.3------------
2019-04-26 19.7 25.8 12.3--- 6.0 3.3---- 0.0------------
2019-04-25 17.6 22.0 12.5--- 3.0 3.7---- 0.0------------
2019-04-24 11.8 14.5 8.0--- 5.3 3.7---- 1.1------------
2019-04-23 10.1 14.4 5.8--- 5.0 6.7---- 0.0------------
2019-04-22 9.2 12.9 6.3--- 7.0 4.3---- 1.5------------
2019-04-21 9.9 15.5 4.0--- 6.0 3.0---- 0.0------------
193.2 ms

 

Źródłem pochodzenia danych jest Instytut Meteorologii i Gospodarki Wodnej – Państwowy Instytut Badawczy. Dane Instytutu Meteorologii i Gospodarki Wodnej – Państwowego Instytutu Badawczego zostały przetworzone.

Dane źródłowe można odnaleźć na stronie https://dane.imgw.pl